Time;durP1;ratioP1;P1;durP2;ratioP2;P2;SDS_P1;SDS_P2;PMS_P1;PMS_P2;Temp;Humidity;BMP_temperature;BMP_pressure;BME280_temperature;BME280_humidity;BME280_pressure;Samples;Min_cycle;Max_cycle;Signal;HPM_P1;HPM_P2
2021/08/23 00:02:05;;;;;;;2.25;1.15;;;;;;;;;;4988353;28;20034;-73
2021/08/23 00:04:32;;;;;;;2.85;1.40;;;;;;;;;;4991978;28;20052;-73
2021/08/23 00:06:57;;;;;;;1.88;1.10;;;;;;;;;;4998120;28;20066;-73
2021/08/23 00:09:23;;;;;;;2.55;1.45;;;;;;;;;;5011081;28;20064;-73
2021/08/23 00:11:48;;;;;;;2.60;1.83;;;;;;;;;;5011168;28;20029;-73
2021/08/23 00:14:14;;;;;;;4.90;1.30;;;;;;;;;;5011251;28;20024;-73
2021/08/23 00:16:40;;;;;;;5.28;1.52;;;;;;;;;;5019390;28;20028;-73
2021/08/23 00:19:05;;;;;;;5.28;1.30;;;;;;;;;;5026364;28;20044;-73
2021/08/23 00:21:40;;;;;;;2.72;1.40;;;;;;;;;;4992380;28;20034;-73
2021/08/23 00:24:06;;;;;;;2.88;1.45;;;;;;;;;;4974361;28;20045;-74
2021/08/23 00:26:33;;;;;;;3.72;1.33;;;;;;;;;;5008824;28;20021;-73
2021/08/23 00:28:59;;;;;;;2.78;1.40;;;;;;;;;;5011077;28;20029;-73
2021/08/23 00:31:25;;;;;;;2.80;1.23;;;;;;;;;;5010841;28;20609;-73
2021/08/23 00:33:51;;;;;;;2.95;1.33;;;;;;;;;;5010694;28;20466;-73
2021/08/23 00:36:16;;;;;;;3.22;1.60;;;;;;;;;;5011162;28;20497;-73
2021/08/23 00:38:42;;;;;;;3.17;1.42;;;;;;;;;;5006711;28;20037;-73
2021/08/23 00:41:07;;;;;;;3.03;1.60;;;;;;;;;;5010785;28;20021;-73
2021/08/23 00:43:32;;;;;;;4.75;1.70;;;;;;;;;;5010559;28;20083;-73
2021/08/23 00:46:03;;;;;;;5.38;1.42;;;;;;;;;;5010675;28;20397;-73
2021/08/23 00:48:29;;;;;;;4.95;1.70;;;;;;;;;;5010420;28;20036;-74
2021/08/23 00:50:54;;;;;;;4.47;1.40;;;;;;;;;;5010498;28;20037;-73
2021/08/23 00:53:20;;;;;;;2.72;1.33;;;;;;;;;;5010760;28;20034;-73
2021/08/23 00:55:45;;;;;;;4.13;1.30;;;;;;;;;;5008840;28;20462;-73
2021/08/23 00:58:11;;;;;;;2.20;1.20;;;;;;;;;;5009923;28;20026;-73
2021/08/23 01:00:43;;;;;;;3.42;1.50;;;;;;;;;;5010911;28;20022;-73
2021/08/23 01:03:18;;;;;;;4.47;1.33;;;;;;;;;;5010062;28;20069;-73
2021/08/23 01:05:45;;;;;;;4.57;1.73;;;;;;;;;;5010623;28;20041;-73
2021/08/23 01:08:30;;;;;;;3.45;1.42;;;;;;;;;;5010026;28;20378;-73
2021/08/23 01:10:58;;;;;;;3.75;1.45;;;;;;;;;;5009986;28;20026;-73
2021/08/23 01:13:25;;;;;;;3.85;1.30;;;;;;;;;;5010364;28;20069;-73
2021/08/23 01:15:50;;;;;;;2.80;1.40;;;;;;;;;;5010508;28;20022;-73
2021/08/23 01:18:16;;;;;;;4.97;1.77;;;;;;;;;;5009082;28;20037;-73
2021/08/23 01:20:43;;;;;;;3.55;1.40;;;;;;;;;;5010092;28;20040;-73
2021/08/23 01:23:11;;;;;;;3.80;1.30;;;;;;;;;;5010416;28;20048;-73
2021/08/23 01:25:39;;;;;;;2.65;1.30;;;;;;;;;;5010062;28;20033;-73
2021/08/23 01:28:42;;;;;;;3.25;1.40;;;;;;;;;;5010165;28;20120;-73
2021/08/23 01:31:13;;;;;;;2.10;1.30;;;;;;;;;;5005044;28;20112;-72
2021/08/23 01:33:40;;;;;;;3.25;1.10;;;;;;;;;;5010522;28;20030;-73
2021/08/23 01:36:06;;;;;;;2.40;1.10;;;;;;;;;;5010226;28;20030;-73
2021/08/23 01:38:31;;;;;;;3.22;1.13;;;;;;;;;;5010145;28;20018;-73
2021/08/23 01:41:03;;;;;;;2.25;1.05;;;;;;;;;;5008757;28;20517;-73
2021/08/23 01:43:28;;;;;;;2.55;1.40;;;;;;;;;;5010134;28;20057;-73
2021/08/23 01:45:54;;;;;;;2.65;1.42;;;;;;;;;;5009950;28;20388;-73
2021/08/23 01:48:19;;;;;;;3.58;1.33;;;;;;;;;;4992928;28;20034;-73
2021/08/23 01:50:46;;;;;;;3.72;1.30;;;;;;;;;;5002244;28;20028;-73
2021/08/23 01:53:12;;;;;;;2.75;1.40;;;;;;;;;;5010287;28;20468;-73
2021/08/23 01:55:37;;;;;;;3.60;1.30;;;;;;;;;;5009823;28;20083;-73
2021/08/23 01:58:04;;;;;;;2.22;1.20;;;;;;;;;;4997494;28;20026;-73
2021/08/23 02:00:30;;;;;;;2.95;1.40;;;;;;;;;;4992129;28;20451;-73
2021/08/23 02:02:56;;;;;;;2.47;1.30;;;;;;;;;;5000325;28;20121;-73
2021/08/23 02:05:21;;;;;;;4.18;1.95;;;;;;;;;;5009927;28;20117;-73
2021/08/23 02:07:47;;;;;;;2.58;1.27;;;;;;;;;;5010356;28;20018;-73
2021/08/23 02:10:12;;;;;;;2.35;1.23;;;;;;;;;;5012433;28;20029;-73
2021/08/23 02:12:38;;;;;;;2.00;1.00;;;;;;;;;;5013594;28;20033;-73
2021/08/23 02:15:04;;;;;;;2.35;1.33;;;;;;;;;;5013710;28;20022;-73
2021/08/23 02:17:29;;;;;;;2.45;1.27;;;;;;;;;;5012874;28;20034;-73
2021/08/23 02:19:55;;;;;;;2.83;1.40;;;;;;;;;;5013493;28;20026;-72
2021/08/23 02:22:20;;;;;;;3.38;1.20;;;;;;;;;;5013329;28;20029;-73
2021/08/23 02:24:46;;;;;;;3.35;1.33;;;;;;;;;;5013512;28;20087;-72
2021/08/23 02:27:12;;;;;;;2.00;1.20;;;;;;;;;;5013158;28;20504;-73
2021/08/23 02:29:37;;;;;;;2.72;1.20;;;;;;;;;;5013756;28;20022;-73
2021/08/23 02:32:03;;;;;;;3.08;1.15;;;;;;;;;;5007956;28;20034;-73
2021/08/23 02:34:29;;;;;;;3.08;1.02;;;;;;;;;;5013062;28;20025;-73
2021/08/23 02:36:54;;;;;;;2.97;1.40;;;;;;;;;;5012700;28;20116;-72
2021/08/23 02:39:19;;;;;;;2.38;1.38;;;;;;;;;;5013121;28;20044;-72
2021/08/23 02:41:45;;;;;;;2.83;1.20;;;;;;;;;;5011079;28;20033;-72
2021/08/23 02:44:10;;;;;;;7.13;1.58;;;;;;;;;;5012480;28;20030;-72
2021/08/23 02:46:36;;;;;;;3.10;1.50;;;;;;;;;;5003034;28;20033;-72
2021/08/23 02:49:01;;;;;;;2.95;1.33;;;;;;;;;;5007076;28;20092;-72
2021/08/23 02:51:27;;;;;;;2.80;1.10;;;;;;;;;;5012624;28;20068;-72
2021/08/23 02:53:52;;;;;;;4.47;1.23;;;;;;;;;;5012714;28;20092;-73
2021/08/23 02:56:19;;;;;;;5.15;1.35;;;;;;;;;;5012337;28;20070;-73
2021/08/23 02:58:44;;;;;;;2.63;1.38;;;;;;;;;;5012781;28;20056;-72
2021/08/23 03:01:10;;;;;;;3.20;1.23;;;;;;;;;;5012418;28;20026;-72
2021/08/23 03:03:35;;;;;;;3.20;1.23;;;;;;;;;;5010257;28;20032;-72
2021/08/23 03:06:01;;;;;;;4.47;1.40;;;;;;;;;;5012552;28;20112;-73
2021/08/23 03:08:27;;;;;;;2.70;1.40;;;;;;;;;;5012777;28;20425;-73
2021/08/23 03:10:54;;;;;;;5.05;2.47;;;;;;;;;;5012599;28;20038;-72
2021/08/23 03:13:23;;;;;;;3.05;1.30;;;;;;;;;;5012092;28;20038;-72
2021/08/23 03:15:49;;;;;;;2.05;1.33;;;;;;;;;;5004996;28;20185;-72
2021/08/23 03:18:15;;;;;;;2.45;1.42;;;;;;;;;;5012077;28;20034;-72
2021/08/23 03:20:40;;;;;;;3.10;1.48;;;;;;;;;;5012276;28;20022;-73
2021/08/23 03:23:05;;;;;;;3.63;1.50;;;;;;;;;;5011812;28;20083;-73
2021/08/23 03:25:31;;;;;;;3.63;1.60;;;;;;;;;;5011940;28;20087;-73
2021/08/23 03:27:56;;;;;;;3.22;1.65;;;;;;;;;;5010924;28;20111;-73
2021/08/23 03:30:22;;;;;;;2.60;1.30;;;;;;;;;;5012286;28;20030;-73
2021/08/23 03:32:47;;;;;;;2.78;1.30;;;;;;;;;;5012114;28;20489;-73
2021/08/23 03:35:13;;;;;;;2.75;1.38;;;;;;;;;;5012029;28;20061;-73
2021/08/23 03:37:38;;;;;;;3.42;1.27;;;;;;;;;;5011867;28;20517;-73
2021/08/23 03:40:04;;;;;;;3.78;1.45;;;;;;;;;;5011899;28;20085;-72
2021/08/23 03:42:30;;;;;;;3.95;1.30;;;;;;;;;;5011428;28;20394;-73
2021/08/23 03:44:55;;;;;;;2.88;1.45;;;;;;;;;;5011298;28;20080;-73
2021/08/23 03:47:21;;;;;;;3.63;1.35;;;;;;;;;;5011056;28;20018;-73
2021/08/23 03:49:47;;;;;;;2.65;1.33;;;;;;;;;;5011493;28;20441;-73
2021/08/23 03:52:12;;;;;;;3.40;1.58;;;;;;;;;;5011402;28;20109;-73
2021/08/23 03:54:38;;;;;;;2.88;1.33;;;;;;;;;;5011829;28;20026;-73
2021/08/23 03:57:03;;;;;;;2.70;1.33;;;;;;;;;;4993958;28;20053;-72
2021/08/23 03:59:29;;;;;;;2.95;1.40;;;;;;;;;;4998325;28;20435;-72
2021/08/23 04:01:54;;;;;;;3.60;1.63;;;;;;;;;;5010849;28;20088;-72
2021/08/23 04:04:20;;;;;;;4.00;1.50;;;;;;;;;;5010639;28;20049;-72
2021/08/23 04:06:46;;;;;;;3.80;1.27;;;;;;;;;;5007841;28;20045;-72
2021/08/23 04:09:13;;;;;;;2.33;1.42;;;;;;;;;;4995842;28;20532;-73
2021/08/23 04:11:39;;;;;;;4.05;1.20;;;;;;;;;;5010770;28;20075;-73
2021/08/23 04:14:05;;;;;;;4.38;1.23;;;;;;;;;;5010661;28;20478;-72
2021/08/23 04:16:30;;;;;;;5.65;1.30;;;;;;;;;;5009031;28;20502;-72
2021/08/23 04:18:56;;;;;;;3.15;1.25;;;;;;;;;;5010648;28;20022;-72
2021/08/23 04:21:21;;;;;;;3.40;1.60;;;;;;;;;;5011075;28;20044;-72
2021/08/23 04:23:47;;;;;;;3.70;1.52;;;;;;;;;;5008095;28;20026;-72
2021/08/23 04:26:12;;;;;;;3.78;1.40;;;;;;;;;;5007364;28;20038;-73
2021/08/23 04:28:38;;;;;;;3.03;1.40;;;;;;;;;;5010899;28;20014;-74
2021/08/23 04:31:04;;;;;;;3.05;1.48;;;;;;;;;;5007646;28;20492;-72
2021/08/23 04:33:29;;;;;;;3.33;1.50;;;;;;;;;;5010946;28;20363;-72
2021/08/23 04:35:55;;;;;;;4.43;1.48;;;;;;;;;;5011250;28;20045;-72
2021/08/23 04:38:20;;;;;;;3.40;1.40;;;;;;;;;;5010449;28;20032;-72
2021/08/23 04:40:46;;;;;;;3.65;1.50;;;;;;;;;;5010888;28;20207;-72
2021/08/23 04:43:11;;;;;;;2.92;1.30;;;;;;;;;;5010606;28;20029;-72
2021/08/23 04:45:37;;;;;;;2.50;1.35;;;;;;;;;;5010808;28;20084;-72
2021/08/23 04:48:02;;;;;;;2.50;1.30;;;;;;;;;;4994285;28;20054;-72
2021/08/23 04:50:28;;;;;;;2.88;1.27;;;;;;;;;;5003464;28;20117;-72
2021/08/23 04:52:53;;;;;;;3.10;1.50;;;;;;;;;;5011001;28;20030;-72
2021/08/23 04:55:19;;;;;;;3.42;1.40;;;;;;;;;;5010782;28;20397;-72
2021/08/23 04:57:44;;;;;;;4.88;1.52;;;;;;;;;;5010179;28;20148;-73
2021/08/23 05:00:11;;;;;;;3.72;1.52;;;;;;;;;;5010629;28;20363;-73
2021/08/23 05:02:38;;;;;;;3.42;1.88;;;;;;;;;;5010748;28;20042;-73
2021/08/23 05:05:05;;;;;;;2.55;1.35;;;;;;;;;;4989950;28;20073;-73
2021/08/23 05:07:30;;;;;;;4.75;1.70;;;;;;;;;;4991233;28;20039;-73
2021/08/23 05:09:56;;;;;;;5.13;1.42;;;;;;;;;;5005908;28;20040;-72
2021/08/23 05:12:21;;;;;;;3.08;1.45;;;;;;;;;;5010830;28;20061;-73
2021/08/23 05:14:47;;;;;;;3.78;1.65;;;;;;;;;;5010137;28;20091;-73
2021/08/23 05:17:12;;;;;;;3.42;1.63;;;;;;;;;;5010414;28;20057;-73
2021/08/23 05:19:38;;;;;;;4.45;1.80;;;;;;;;;;5011060;28;20036;-73
2021/08/23 05:22:03;;;;;;;4.50;2.17;;;;;;;;;;5010776;28;20032;-73
2021/08/23 05:24:29;;;;;;;3.28;2.10;;;;;;;;;;5010712;28;20544;-73
2021/08/23 05:26:54;;;;;;;3.03;1.80;;;;;;;;;;5010899;28;20084;-73
2021/08/23 05:29:20;;;;;;;3.63;1.83;;;;;;;;;;5010181;28;20026;-73
2021/08/23 05:31:45;;;;;;;3.70;1.60;;;;;;;;;;5010630;28;20038;-73
2021/08/23 05:34:11;;;;;;;3.00;1.70;;;;;;;;;;5010227;28;20037;-73
2021/08/23 05:36:36;;;;;;;3.50;1.73;;;;;;;;;;5010329;28;20029;-73
2021/08/23 05:39:02;;;;;;;4.07;1.75;;;;;;;;;;4994382;28;20060;-73
2021/08/23 05:41:27;;;;;;;3.10;1.30;;;;;;;;;;5010049;28;20041;-73
2021/08/23 05:43:53;;;;;;;5.15;1.52;;;;;;;;;;5012717;28;20037;-73
2021/08/23 05:46:20;;;;;;;2.67;1.00;;;;;;;;;;5014036;28;20488;-73
2021/08/23 05:48:45;;;;;;;1.83;0.90;;;;;;;;;;5014341;28;20014;-73
2021/08/23 05:51:14;;;;;;;2.03;1.02;;;;;;;;;;5014018;28;20379;-73
2021/08/23 05:53:41;;;;;;;2.08;0.90;;;;;;;;;;4994844;28;20030;-73
2021/08/23 05:56:07;;;;;;;1.80;0.73;;;;;;;;;;5006334;28;20032;-73
2021/08/23 05:58:32;;;;;;;2.53;0.80;;;;;;;;;;5014238;28;20025;-73
2021/08/23 06:00:58;;;;;;;0.90;0.73;;;;;;;;;;5014078;28;20065;-74
2021/08/23 06:03:23;;;;;;;0.82;0.57;;;;;;;;;;5014275;28;20025;-74
2021/08/23 06:05:49;;;;;;;3.58;1.23;;;;;;;;;;5014013;28;20093;-73
2021/08/23 06:08:15;;;;;;;1.38;0.70;;;;;;;;;;5013979;28;20052;-73
2021/08/23 06:10:40;;;;;;;1.27;0.68;;;;;;;;;;5013828;28;20025;-72
2021/08/23 06:13:06;;;;;;;2.05;0.60;;;;;;;;;;5013725;28;20076;-73
2021/08/23 06:15:31;;;;;;;1.42;0.68;;;;;;;;;;5013936;28;20022;-73
2021/08/23 06:17:57;;;;;;;1.35;0.60;;;;;;;;;;5013974;28;20029;-72
2021/08/23 06:20:23;;;;;;;1.58;0.50;;;;;;;;;;5013815;28;20025;-72
2021/08/23 06:22:50;;;;;;;2.55;0.70;;;;;;;;;;5014246;28;20030;-73
2021/08/23 06:25:16;;;;;;;5.88;0.70;;;;;;;;;;5013266;28;20337;-72
2021/08/23 06:27:41;;;;;;;1.15;0.57;;;;;;;;;;5014131;28;20033;-72
2021/08/23 06:30:08;;;;;;;0.98;0.60;;;;;;;;;;5013732;28;20026;-73
2021/08/23 06:32:34;;;;;;;1.38;0.50;;;;;;;;;;5013516;28;20104;-72
2021/08/23 06:35:00;;;;;;;0.82;0.40;;;;;;;;;;5013681;28;20108;-73
2021/08/23 06:37:25;;;;;;;1.02;0.40;;;;;;;;;;5013451;28;20090;-73
2021/08/23 06:39:51;;;;;;;0.80;0.60;;;;;;;;;;5013609;28;20053;-73
2021/08/23 06:42:16;;;;;;;0.77;0.40;;;;;;;;;;5013430;28;20060;-73
2021/08/23 06:44:42;;;;;;;1.50;0.60;;;;;;;;;;5013072;28;20045;-72
2021/08/23 06:47:08;;;;;;;4.15;0.50;;;;;;;;;;5013508;28;20049;-73
2021/08/23 06:49:34;;;;;;;2.08;0.40;;;;;;;;;;5013389;28;20022;-73
2021/08/23 06:51:59;;;;;;;0.90;0.50;;;;;;;;;;5013445;28;20393;-73
2021/08/23 06:54:24;;;;;;;1.08;0.43;;;;;;;;;;5012330;28;20040;-73
2021/08/23 06:56:50;;;;;;;0.77;0.50;;;;;;;;;;5012622;28;20116;-73
2021/08/23 06:59:15;;;;;;;1.40;0.30;;;;;;;;;;5012644;28;20026;-73
2021/08/23 07:01:41;;;;;;;0.77;0.50;;;;;;;;;;5015407;28;20057;-74
2021/08/23 07:04:08;;;;;;;0.75;0.40;;;;;;;;;;5012887;28;20033;-74
2021/08/23 07:06:34;;;;;;;1.17;0.40;;;;;;;;;;5013301;28;20473;-75
2021/08/23 07:09:00;;;;;;;1.05;0.47;;;;;;;;;;5012584;28;20100;-74
2021/08/23 07:11:25;;;;;;;1.23;0.38;;;;;;;;;;5011908;28;20192;-72
2021/08/23 07:13:51;;;;;;;0.50;0.40;;;;;;;;;;5009759;28;20504;-74
2021/08/23 07:16:17;;;;;;;0.63;0.40;;;;;;;;;;4993804;28;20040;-72
2021/08/23 07:18:42;;;;;;;0.50;0.30;;;;;;;;;;5012772;28;20105;-73
2021/08/23 07:21:08;;;;;;;1.63;0.50;;;;;;;;;;5012967;28;20141;-73
2021/08/23 07:23:33;;;;;;;0.50;0.38;;;;;;;;;;5013172;28;20453;-74
2021/08/23 07:25:59;;;;;;;1.42;0.40;;;;;;;;;;5013089;28;20058;-74
2021/08/23 07:28:24;;;;;;;1.05;0.50;;;;;;;;;;5012610;28;20029;-76
2021/08/23 07:30:50;;;;;;;2.88;0.50;;;;;;;;;;5013240;28;20026;-74
2021/08/23 07:33:15;;;;;;;1.65;0.30;;;;;;;;;;5012768;28;20030;-76
2021/08/23 07:35:41;;;;;;;2.25;0.50;;;;;;;;;;5012921;28;20068;-74
2021/08/23 07:38:06;;;;;;;0.80;0.40;;;;;;;;;;5007274;28;20382;-74
2021/08/23 07:40:32;;;;;;;0.63;0.40;;;;;;;;;;5012118;28;20129;-74
2021/08/23 07:42:58;;;;;;;0.82;0.40;;;;;;;;;;5012366;28;20421;-73
2021/08/23 07:45:24;;;;;;;2.40;0.40;;;;;;;;;;5012229;28;20445;-76
2021/08/23 07:47:49;;;;;;;0.55;0.43;;;;;;;;;;4997601;28;20022;-74
2021/08/23 07:50:16;;;;;;;0.70;0.32;;;;;;;;;;5011452;28;20108;-75
2021/08/23 07:52:42;;;;;;;0.60;0.40;;;;;;;;;;5011503;28;20113;-75
2021/08/23 07:55:09;;;;;;;1.80;0.45;;;;;;;;;;5008554;28;20156;-75
2021/08/23 07:57:41;;;;;;;1.25;0.57;;;;;;;;;;5011838;28;20042;-74
2021/08/23 08:00:08;;;;;;;1.45;0.70;;;;;;;;;;5012028;28;20461;-74
2021/08/23 08:02:33;;;;;;;1.00;0.50;;;;;;;;;;5008958;28;20040;-73
2021/08/23 08:04:59;;;;;;;0.98;0.57;;;;;;;;;;4994314;28;20026;-76
2021/08/23 08:07:24;;;;;;;1.50;0.70;;;;;;;;;;4989202;28;20042;-75
2021/08/23 08:09:50;;;;;;;2.55;0.60;;;;;;;;;;4992482;28;20045;-74
2021/08/23 08:12:15;;;;;;;1.85;0.52;;;;;;;;;;4992439;28;20030;-75
2021/08/23 08:14:40;;;;;;;0.70;0.40;;;;;;;;;;4992746;28;20724;-75
2021/08/23 08:17:06;;;;;;;0.40;0.30;;;;;;;;;;4992003;28;20109;-76
2021/08/23 08:19:32;;;;;;;1.33;0.60;;;;;;;;;;4991805;28;20096;-76
2021/08/23 08:21:58;;;;;;;2.10;0.70;;;;;;;;;;4989652;28;20416;-77
2021/08/23 08:24:24;;;;;;;1.85;0.68;;;;;;;;;;4992412;28;20053;-76
2021/08/23 08:26:50;;;;;;;0.75;0.40;;;;;;;;;;4992472;28;20077;-77
2021/08/23 08:29:15;;;;;;;1.55;0.75;;;;;;;;;;4993556;28;20037;-77
2021/08/23 08:31:41;;;;;;;1.38;0.50;;;;;;;;;;4979255;28;20026;-77
2021/08/23 08:34:06;;;;;;;1.13;0.35;;;;;;;;;;4992957;28;20030;-76
2021/08/23 08:36:32;;;;;;;1.30;0.50;;;;;;;;;;4992853;28;20026;-76
2021/08/23 08:38:57;;;;;;;1.70;0.40;;;;;;;;;;4992976;28;20035;-77
2021/08/23 08:41:23;;;;;;;1.13;0.40;;;;;;;;;;4993041;28;20026;-74
2021/08/23 08:43:49;;;;;;;3.40;0.60;;;;;;;;;;4992849;28;20028;-76
2021/08/23 08:46:14;;;;;;;0.75;0.45;;;;;;;;;;4992713;28;20030;-75
2021/08/23 08:48:40;;;;;;;0.77;0.57;;;;;;;;;;4994149;28;20129;-75
2021/08/23 08:51:06;;;;;;;0.75;0.50;;;;;;;;;;4993381;28;20033;-75
2021/08/23 08:53:32;;;;;;;1.33;0.50;;;;;;;;;;4991408;28;20054;-74
2021/08/23 08:55:57;;;;;;;1.38;0.60;;;;;;;;;;4990678;28;20092;-74
2021/08/23 08:58:24;;;;;;;1.05;0.50;;;;;;;;;;4990729;28;20030;-74
2021/08/23 09:00:51;;;;;;;1.77;0.60;;;;;;;;;;4991856;28;20026;-75
2021/08/23 09:03:28;;;;;;;1.52;0.60;;;;;;;;;;4990479;28;20026;-74
2021/08/23 09:06:07;;;;;;;1.30;0.38;;;;;;;;;;4996199;28;20046;-76
2021/08/23 09:08:41;;;;;;;0.52;0.40;;;;;;;;;;4994394;28;20030;-77
2021/08/23 09:11:18;;;;;;;0.93;0.40;;;;;;;;;;5013192;28;20057;-78
2021/08/23 09:13:59;;;;;;;2.67;0.50;;;;;;;;;;5011949;28;20025;-76
2021/08/23 09:16:34;;;;;;;1.10;0.50;;;;;;;;;;4994607;28;20410;-75
2021/08/23 09:19:00;;;;;;;2.50;0.47;;;;;;;;;;5017426;28;20429;-77
2021/08/23 09:21:31;;;;;;;0.68;0.40;;;;;;;;;;5014088;28;20026;-77
2021/08/23 09:23:58;;;;;;;0.40;0.40;;;;;;;;;;5014240;28;20025;-73
2021/08/23 09:26:31;;;;;;;1.45;0.50;;;;;;;;;;4997724;28;20033;-75
2021/08/23 09:28:59;;;;;;;0.80;0.43;;;;;;;;;;5014240;28;20029;-76
2021/08/23 09:31:36;;;;;;;1.27;0.45;;;;;;;;;;5014156;28;20034;-78
2021/08/23 09:34:07;;;;;;;0.77;0.47;;;;;;;;;;5013321;28;20079;-75
2021/08/23 09:36:32;;;;;;;1.65;0.70;;;;;;;;;;5014437;28;20030;-75
2021/08/23 09:39:05;;;;;;;0.88;0.40;;;;;;;;;;5014246;28;20026;-75
2021/08/23 09:41:32;;;;;;;1.67;0.50;;;;;;;;;;5014372;28;20084;-75
2021/08/23 09:44:05;;;;;;;0.52;0.32;;;;;;;;;;5014575;28;20073;-76
2021/08/23 09:46:32;;;;;;;1.15;0.38;;;;;;;;;;5014468;28;20485;-75
2021/08/23 09:49:02;;;;;;;0.65;0.40;;;;;;;;;;5014911;28;20022;-75
2021/08/23 09:51:36;;;;;;;1.05;0.50;;;;;;;;;;5014791;28;20052;-73
2021/08/23 09:54:05;;;;;;;2.20;0.30;;;;;;;;;;5014519;28;20036;-74
2021/08/23 09:56:33;;;;;;;0.88;0.30;;;;;;;;;;5013622;28;20037;-75
2021/08/23 09:59:00;;;;;;;0.55;0.30;;;;;;;;;;5014612;28;20414;-74
2021/08/23 10:01:25;;;;;;;0.77;0.32;;;;;;;;;;5014888;28;20030;-74
2021/08/23 10:03:51;;;;;;;1.48;0.35;;;;;;;;;;5014946;28;20612;-73
2021/08/23 10:06:19;;;;;;;3.88;0.38;;;;;;;;;;5014714;28;20048;-73
2021/08/23 10:08:44;;;;;;;1.90;0.55;;;;;;;;;;5014232;28;20025;-74
2021/08/23 10:11:11;;;;;;;1.38;0.43;;;;;;;;;;5013761;28;20030;-74
2021/08/23 10:13:37;;;;;;;1.17;0.28;;;;;;;;;;5014412;28;20057;-73
2021/08/23 10:16:03;;;;;;;1.75;0.32;;;;;;;;;;5014377;28;20103;-74
2021/08/23 10:18:30;;;;;;;1.38;0.43;;;;;;;;;;5013714;28;20036;-75
2021/08/23 10:20:55;;;;;;;0.73;0.50;;;;;;;;;;5014614;28;20108;-72
2021/08/23 10:23:22;;;;;;;0.90;0.40;;;;;;;;;;5005080;28;20161;-73
2021/08/23 10:25:48;;;;;;;0.70;0.40;;;;;;;;;;5014176;28;20029;-73
2021/08/23 10:28:16;;;;;;;2.05;0.40;;;;;;;;;;5014371;28;20022;-74
2021/08/23 10:30:42;;;;;;;2.67;0.50;;;;;;;;;;5013055;28;20506;-74
2021/08/23 10:33:16;;;;;;;0.40;0.30;;;;;;;;;;5014082;28;20115;-74
2021/08/23 10:35:55;;;;;;;3.30;0.38;;;;;;;;;;5013395;28;20030;-74
2021/08/23 10:38:24;;;;;;;1.63;0.40;;;;;;;;;;5013587;28;20034;-73
2021/08/23 10:41:15;;;;;;;0.52;0.40;;;;;;;;;;5006161;28;20086;-73
2021/08/23 10:43:48;;;;;;;0.60;0.30;;;;;;;;;;5012429;28;20394;-75
2021/08/23 10:46:35;;;;;;;1.13;0.40;;;;;;;;;;5013438;28;20113;-74
2021/08/23 10:49:13;;;;;;;0.45;0.40;;;;;;;;;;5011847;28;20045;-74
2021/08/23 10:51:41;;;;;;;1.08;0.47;;;;;;;;;;5013567;28;20025;-73
2021/08/23 10:54:33;;;;;;;5.20;0.47;;;;;;;;;;5016255;28;20410;-75
2021/08/23 10:57:01;;;;;;;0.82;0.43;;;;;;;;;;5011952;28;20026;-76
2021/08/23 10:59:47;;;;;;;1.45;0.68;;;;;;;;;;5012861;28;20022;-75
2021/08/23 11:02:33;;;;;;;1.23;0.38;;;;;;;;;;5012873;28;20029;-75
2021/08/23 11:05:19;;;;;;;0.85;0.50;;;;;;;;;;5013172;28;20034;-75
2021/08/23 11:07:47;;;;;;;1.17;0.50;;;;;;;;;;5013002;28;20041;-73
2021/08/23 11:10:15;;;;;;;1.10;0.52;;;;;;;;;;5013450;28;20460;-75
2021/08/23 11:12:49;;;;;;;0.35;0.35;;;;;;;;;;5007904;28;20448;-73
2021/08/23 11:15:27;;;;;;;1.35;0.50;;;;;;;;;;4997715;28;20033;-75
2021/08/23 11:18:20;;;;;;;0.77;0.50;;;;;;;;;;5006805;28;20120;-73
2021/08/23 11:20:51;;;;;;;0.85;0.43;;;;;;;;;;5010137;28;20041;-75
2021/08/23 11:23:29;;;;;;;1.00;0.50;;;;;;;;;;5012996;28;20509;-76
2021/08/23 11:26:03;;;;;;;0.90;0.60;;;;;;;;;;5012937;28;20446;-76
2021/08/23 11:28:30;;;;;;;1.08;0.43;;;;;;;;;;4996469;28;20029;-76
2021/08/23 11:30:58;;;;;;;0.60;0.30;;;;;;;;;;5013085;28;20101;-73
2021/08/23 11:33:33;;;;;;;2.25;0.50;;;;;;;;;;5012923;28;20026;-76
2021/08/23 11:35:59;;;;;;;0.80;0.38;;;;;;;;;;5013578;28;20092;-74
2021/08/23 11:38:31;;;;;;;1.67;0.47;;;;;;;;;;5012849;28;20534;-75
2021/08/23 11:40:57;;;;;;;1.33;0.57;;;;;;;;;;5013304;28;20036;-75
2021/08/23 11:43:27;;;;;;;1.42;0.55;;;;;;;;;;5013096;28;20021;-75
2021/08/23 11:45:53;;;;;;;0.98;0.52;;;;;;;;;;5012500;28;20029;-75
2021/08/23 11:48:19;;;;;;;1.05;0.47;;;;;;;;;;5012583;28;20052;-73
2021/08/23 11:50:45;;;;;;;0.95;0.43;;;;;;;;;;5013014;28;20057;-75
2021/08/23 11:53:12;;;;;;;0.77;0.50;;;;;;;;;;5008022;28;20030;-73
2021/08/23 11:55:39;;;;;;;0.70;0.50;;;;;;;;;;5003539;28;20528;-74
2021/08/23 11:58:10;;;;;;;0.98;0.52;;;;;;;;;;4994615;28;20036;-76
2021/08/23 12:00:38;;;;;;;0.75;0.50;;;;;;;;;;5011750;28;20057;-76
2021/08/23 12:03:07;;;;;;;1.40;0.60;;;;;;;;;;5011717;28;20108;-77
2021/08/23 12:05:36;;;;;;;0.98;0.57;;;;;;;;;;5012030;28;20017;-76
2021/08/23 12:08:02;;;;;;;0.95;0.60;;;;;;;;;;4992476;28;20034;-76
2021/08/23 12:10:33;;;;;;;2.65;0.70;;;;;;;;;;4992455;28;20045;-76
2021/08/23 12:13:08;;;;;;;3.28;0.90;;;;;;;;;;4990817;28;20033;-76
2021/08/23 12:15:56;;;;;;;1.60;0.70;;;;;;;;;;4992001;28;20084;-79
2021/08/23 12:18:41;;;;;;;1.52;0.70;;;;;;;;;;4991902;28;20061;-76
2021/08/23 12:21:18;;;;;;;1.50;0.90;;;;;;;;;;4992205;28;20030;-76
2021/08/23 12:23:51;;;;;;;1.23;0.70;;;;;;;;;;4991863;28;20065;-76
2021/08/23 12:26:28;;;;;;;1.50;0.77;;;;;;;;;;4991804;28;20030;-75
2021/08/23 12:29:12;;;;;;;1.40;0.77;;;;;;;;;;4991740;28;20497;-74
2021/08/23 12:31:45;;;;;;;1.65;0.85;;;;;;;;;;4991769;28;20111;-74
2021/08/23 12:34:15;;;;;;;1.53;0.80;;;;;;;;;;4991639;28;20070;-74
2021/08/23 12:36:42;;;;;;;2.90;1.02;;;;;;;;;;4991673;28;20287;-75
2021/08/23 12:39:08;;;;;;;1.60;0.80;;;;;;;;;;4992030;28;20113;-73
2021/08/23 12:41:33;;;;;;;1.67;0.82;;;;;;;;;;4994109;28;20058;-77
2021/08/23 12:43:59;;;;;;;1.52;0.80;;;;;;;;;;4994044;28;20487;-76
2021/08/23 12:46:26;;;;;;;2.15;0.98;;;;;;;;;;4993671;28;20030;-75
2021/08/23 12:48:52;;;;;;;1.13;0.77;;;;;;;;;;4992051;28;20029;-70
2021/08/23 12:51:18;;;;;;;1.45;0.90;;;;;;;;;;4992084;28;20032;-73
2021/08/23 12:53:44;;;;;;;3.40;1.10;;;;;;;;;;4991356;28;20022;-75
2021/08/23 12:56:15;;;;;;;1.73;1.00;;;;;;;;;;4992143;28;20383;-75
2021/08/23 12:58:41;;;;;;;3.33;1.10;;;;;;;;;;4992284;28;20057;-75
2021/08/23 13:01:07;;;;;;;2.20;1.05;;;;;;;;;;4992645;28;20714;-77
2021/08/23 13:03:33;;;;;;;2.65;1.10;;;;;;;;;;4991835;28;20101;-79
2021/08/23 13:05:59;;;;;;;1.70;0.93;;;;;;;;;;4991582;28;20046;-77
2021/08/23 13:08:24;;;;;;;2.38;1.00;;;;;;;;;;5007335;28;20034;-77
2021/08/23 13:10:50;;;;;;;4.25;1.00;;;;;;;;;;4992195;28;20489;-76
2021/08/23 13:13:16;;;;;;;3.65;1.10;;;;;;;;;;4991867;28;20085;-75
2021/08/23 13:15:42;;;;;;;2.25;0.80;;;;;;;;;;4990945;28;20034;-74
2021/08/23 13:18:08;;;;;;;1.67;0.98;;;;;;;;;;4991921;28;20034;-77
2021/08/23 13:20:36;;;;;;;2.15;1.20;;;;;;;;;;4991146;28;20037;-76
2021/08/23 13:23:02;;;;;;;2.53;1.00;;;;;;;;;;4992137;28;20113;-76
2021/08/23 13:25:28;;;;;;;3.00;1.33;;;;;;;;;;4991725;28;20375;-76
2021/08/23 13:27:53;;;;;;;2.03;1.25;;;;;;;;;;4991841;28;20026;-75
2021/08/23 13:30:19;;;;;;;1.95;0.90;;;;;;;;;;4991926;28;20030;-74
2021/08/23 13:32:47;;;;;;;2.22;1.30;;;;;;;;;;4991697;28;20044;-73
2021/08/23 13:35:12;;;;;;;1.85;0.95;;;;;;;;;;4991848;28;20026;-74
2021/08/23 13:37:38;;;;;;;1.90;1.02;;;;;;;;;;4991859;28;20098;-77
2021/08/23 13:40:07;;;;;;;2.63;1.10;;;;;;;;;;4992007;28;20080;-76
2021/08/23 13:42:33;;;;;;;8.50;1.50;;;;;;;;;;4991109;28;20663;-79
2021/08/23 13:44:58;;;;;;;1.73;1.05;;;;;;;;;;4991033;28;20053;-76
2021/08/23 13:47:24;;;;;;;2.25;1.10;;;;;;;;;;4991868;28;20026;-74
2021/08/23 13:49:49;;;;;;;4.95;0.95;;;;;;;;;;4991373;28;20188;-75
2021/08/23 13:52:15;;;;;;;2.08;0.90;;;;;;;;;;4990758;28;20027;-77
2021/08/23 13:54:40;;;;;;;1.73;1.02;;;;;;;;;;4996206;28;20034;-75
2021/08/23 13:57:06;;;;;;;1.75;1.10;;;;;;;;;;4991094;28;20037;-76
2021/08/23 13:59:32;;;;;;;3.78;0.95;;;;;;;;;;4990385;28;20038;-75
2021/08/23 14:01:58;;;;;;;6.47;1.20;;;;;;;;;;4992746;28;20062;-79
2021/08/23 14:04:24;;;;;;;1.75;0.85;;;;;;;;;;5007723;28;20064;-75
2021/08/23 14:06:50;;;;;;;1.77;1.00;;;;;;;;;;5004632;28;20152;-75
2021/08/23 14:09:16;;;;;;;10.05;1.40;;;;;;;;;;5014359;28;20525;-76
2021/08/23 14:11:41;;;;;;;2.20;1.25;;;;;;;;;;5013561;28;20025;-75
2021/08/23 14:14:07;;;;;;;1.98;1.10;;;;;;;;;;5014383;28;20105;-74
2021/08/23 14:16:33;;;;;;;1.85;1.10;;;;;;;;;;5014847;28;20105;-74
2021/08/23 14:18:59;;;;;;;1.50;0.93;;;;;;;;;;5014315;28;20030;-74
2021/08/23 14:21:25;;;;;;;1.88;1.10;;;;;;;;;;5025038;28;20556;-73
2021/08/23 14:23:51;;;;;;;7.07;1.10;;;;;;;;;;5013846;28;20026;-76
2021/08/23 14:26:19;;;;;;;2.85;1.00;;;;;;;;;;5014295;28;20427;-74
2021/08/23 14:28:44;;;;;;;1.67;0.80;;;;;;;;;;5014490;28;20454;-73
2021/08/23 14:31:10;;;;;;;1.63;0.90;;;;;;;;;;5013983;28;20033;-72
2021/08/23 14:33:35;;;;;;;1.58;0.70;;;;;;;;;;5016956;28;20028;-74
2021/08/23 14:36:01;;;;;;;5.93;1.40;;;;;;;;;;5017682;28;20105;-74
2021/08/23 14:38:27;;;;;;;1.98;1.00;;;;;;;;;;5023880;28;20030;-73
2021/08/23 14:40:53;;;;;;;2.88;1.10;;;;;;;;;;5012604;28;20096;-71
2021/08/23 14:43:18;;;;;;;6.47;1.25;;;;;;;;;;5014805;28;20089;-74
2021/08/23 14:45:44;;;;;;;1.25;0.95;;;;;;;;;;5013309;28;20026;-74